Terminal Aerodrome Forecast
Issued by NWS

Home | Current Version | Previous Version | Text Only | Print | Product List | Glossary On
Versions: 1 2 3 4 5 6 7 8 9 10 11 12 13 14
000
FTUS45 KABQ 231854 AAA
TAFLVS
TAF AMD
KLVS 231854Z 2319/2418 06012KT P6SM VCSH BKN070
      TEMPO 2320/2323 VRB20G35KT 6SM -TSRA OVC050CB
     FM240300 02007KT P6SM BKN070
     FM240900 03006KT P6SM SCT040=

USA.gov is the U.S. government's official web portal to all federal, state and local government web resources and services.